createdAt,value
2018-11-05T00:00:46.250Z,1006.17
2018-11-05T00:01:46.204Z,1006.13
2018-11-05T00:02:46.159Z,1006.17
2018-11-05T00:03:46.120Z,1006.20
2018-11-05T00:04:46.076Z,1006.18
2018-11-05T00:05:46.284Z,1006.18
2018-11-05T00:06:45.986Z,1006.16
2018-11-05T00:07:45.943Z,1006.20
2018-11-05T00:08:45.903Z,1006.16
2018-11-05T00:09:45.856Z,1006.11
2018-11-05T00:10:45.811Z,1006.14
2018-11-05T00:11:45.767Z,1006.11
2018-11-05T00:12:45.972Z,1006.08
2018-11-05T00:13:45.800Z,1006.05
2018-11-05T00:14:45.637Z,1006.06
2018-11-05T00:15:45.590Z,1006.03
2018-11-05T00:16:45.553Z,1006.03
2018-11-05T00:17:45.503Z,1006.03
2018-11-05T00:18:45.765Z,1006.03
2018-11-05T00:19:45.419Z,1006.00
2018-11-05T00:20:45.381Z,1005.94
2018-11-05T00:21:45.331Z,1005.98
2018-11-05T00:22:45.289Z,1005.92
2018-11-05T00:23:45.240Z,1005.94
2018-11-05T00:24:45.207Z,1005.96
2018-11-05T00:25:45.453Z,1005.96
2018-11-05T00:26:45.112Z,1005.95
2018-11-05T00:27:45.071Z,1005.96
2018-11-05T00:28:45.021Z,1006.00
2018-11-05T00:29:44.979Z,1006.08
2018-11-05T00:30:44.935Z,1006.06
2018-11-05T00:31:44.890Z,1006.11
2018-11-05T00:32:45.097Z,1006.09
2018-11-05T00:33:44.801Z,1006.08
2018-11-05T00:34:44.760Z,1006.07
2018-11-05T00:35:44.716Z,1006.05
2018-11-05T00:36:44.670Z,1006.00
2018-11-05T00:37:44.629Z,1005.98
2018-11-05T00:38:44.582Z,1005.97
2018-11-05T00:39:44.842Z,1005.97
2018-11-05T00:40:44.493Z,1006.00
2018-11-05T00:41:44.605Z,1005.95
2018-11-05T00:42:44.411Z,1005.90
2018-11-05T00:43:44.363Z,1005.89
2018-11-05T00:44:44.317Z,1005.88
2018-11-05T00:45:44.380Z,1005.89
2018-11-05T00:46:44.482Z,1005.84
2018-11-05T00:47:44.288Z,1005.81
2018-11-05T00:48:44.145Z,1005.83
2018-11-05T00:49:44.101Z,1005.87
2018-11-05T00:50:44.058Z,1005.89
2018-11-05T00:51:44.012Z,1005.84
2018-11-05T00:52:43.966Z,1005.88
2018-11-05T00:53:44.223Z,1005.90
2018-11-05T00:54:43.879Z,1005.86
2018-11-05T00:55:44.194Z,1005.87
2018-11-05T00:56:43.791Z,1005.88
2018-11-05T00:57:43.751Z,1005.87
2018-11-05T00:58:43.905Z,1005.87
2018-11-05T00:59:43.666Z,1005.86
2018-11-05T01:00:43.864Z,1005.87
2018-11-05T01:01:43.576Z,1005.88
2018-11-05T01:02:43.681Z,1005.91
2018-11-05T01:03:43.604Z,1005.97
2018-11-05T01:04:43.803Z,1005.96
2018-11-05T01:05:43.396Z,1005.98
2018-11-05T01:06:43.352Z,1005.90
2018-11-05T01:07:43.560Z,1005.97
2018-11-05T01:08:43.270Z,1005.90
2018-11-05T01:09:43.220Z,1005.87
2018-11-05T01:10:43.427Z,1005.87
2018-11-05T01:11:43.133Z,1005.86
2018-11-05T01:12:43.089Z,1005.82
2018-11-05T01:13:43.051Z,1005.78
2018-11-05T01:14:43.252Z,1005.76
2018-11-05T01:15:42.960Z,1005.77
2018-11-05T01:16:42.914Z,1005.72
2018-11-05T01:17:42.873Z,1005.77
2018-11-05T01:18:42.827Z,1005.73
2018-11-05T01:19:42.781Z,1005.77
2018-11-05T01:20:42.737Z,1005.75
2018-11-05T01:21:42.946Z,1005.66
2018-11-05T01:22:42.651Z,1005.67
2018-11-05T01:23:42.605Z,1005.67
2018-11-05T01:24:42.566Z,1005.61
2018-11-05T01:25:42.516Z,1005.57
2018-11-05T01:26:42.824Z,1005.54
2018-11-05T01:27:42.679Z,1005.50
2018-11-05T01:28:42.384Z,1005.45
2018-11-05T01:29:42.342Z,1005.43
2018-11-05T01:30:42.298Z,1005.47
2018-11-05T01:31:42.255Z,1005.39
2018-11-05T01:32:42.370Z,1005.41
2018-11-05T01:33:42.164Z,1005.46
2018-11-05T01:34:42.371Z,1005.42
2018-11-05T01:35:42.080Z,1005.40
2018-11-05T01:36:42.034Z,1005.35
2018-11-05T01:37:41.996Z,1005.33
2018-11-05T01:38:42.295Z,1005.32
2018-11-05T01:39:41.903Z,1005.28
2018-11-05T01:40:41.859Z,1005.30
2018-11-05T01:41:42.063Z,1005.30
2018-11-05T01:42:41.769Z,1005.24
2018-11-05T01:43:41.729Z,1005.24
2018-11-05T01:44:41.684Z,1005.23
2018-11-05T01:45:41.637Z,1005.21
2018-11-05T01:46:41.597Z,1005.17
2018-11-05T01:47:41.552Z,1005.16
2018-11-05T01:48:41.810Z,1005.17
2018-11-05T01:49:41.912Z,1005.12
2018-11-05T01:50:41.417Z,1005.15
2018-11-05T01:51:41.379Z,1005.15
2018-11-05T01:52:41.329Z,1005.13
2018-11-05T01:53:41.288Z,1005.09
2018-11-05T01:54:41.248Z,1005.08
2018-11-05T01:55:41.657Z,1005.07
2018-11-05T01:56:41.155Z,1005.07
2018-11-05T01:57:41.119Z,1005.07
2018-11-05T01:58:41.066Z,1005.10
2018-11-05T01:59:41.031Z,1005.09
2018-11-05T02:00:40.980Z,1005.08
2018-11-05T02:01:40.935Z,1005.04
2018-11-05T02:02:41.141Z,1005.05
2018-11-05T02:03:40.848Z,1005.06
2018-11-05T02:04:40.801Z,1005.03
2018-11-05T02:05:40.758Z,1005.03
2018-11-05T02:06:40.713Z,1005.08
2018-11-05T02:07:40.670Z,1005.10
2018-11-05T02:08:40.624Z,1005.11
2018-11-05T02:09:40.832Z,1005.12
2018-11-05T02:10:40.540Z,1005.09
2018-11-05T02:11:40.495Z,1005.07
2018-11-05T02:12:40.550Z,1005.14
2018-11-05T02:13:40.407Z,1005.11
2018-11-05T02:14:40.362Z,1005.14
2018-11-05T02:15:40.319Z,1005.16
2018-11-05T02:16:40.526Z,1005.18
2018-11-05T02:17:40.233Z,1005.14
2018-11-05T02:18:40.388Z,1005.07
2018-11-05T02:19:40.155Z,1005.07
2018-11-05T02:20:40.097Z,1005.08
2018-11-05T02:21:40.054Z,1005.01
2018-11-05T02:22:40.011Z,1005.06
2018-11-05T02:23:40.266Z,1005.02
2018-11-05T02:24:39.922Z,1005.10
2018-11-05T02:25:39.881Z,1004.99
2018-11-05T02:26:39.835Z,1005.02
2018-11-05T02:27:39.793Z,1005.00
2018-11-05T02:28:39.748Z,1004.98
2018-11-05T02:29:39.805Z,1005.01
2018-11-05T02:30:39.911Z,1004.98
2018-11-05T02:31:39.621Z,1004.97
2018-11-05T02:32:39.579Z,1004.98
2018-11-05T02:33:39.526Z,1005.01
2018-11-05T02:34:39.496Z,1004.95
2018-11-05T02:35:39.590Z,1004.90
2018-11-05T02:36:39.656Z,1004.94
2018-11-05T02:37:39.355Z,1004.90
2018-11-05T02:38:39.309Z,1004.85
2018-11-05T02:39:39.267Z,1004.90
2018-11-05T02:40:39.219Z,1004.86
2018-11-05T02:41:39.176Z,1004.89
2018-11-05T02:42:39.135Z,1004.87
2018-11-05T02:43:39.388Z,1004.86
2018-11-05T02:44:39.053Z,1004.88
2018-11-05T02:45:39.000Z,1004.85
2018-11-05T02:46:39.068Z,1004.81
2018-11-05T02:47:38.915Z,1004.83
2018-11-05T02:48:38.875Z,1004.78
2018-11-05T02:49:38.832Z,1004.78
2018-11-05T02:50:39.030Z,1004.79
2018-11-05T02:51:38.737Z,1004.87
2018-11-05T02:52:38.692Z,1004.82
2018-11-05T02:53:38.651Z,1004.79
2018-11-05T02:54:38.604Z,1004.78
2018-11-05T02:55:38.561Z,1004.78
2018-11-05T02:56:38.520Z,1004.77
2018-11-05T02:57:38.736Z,1004.80
2018-11-05T02:58:38.479Z,1004.72
2018-11-05T02:59:38.387Z,1004.74
2018-11-05T03:00:38.342Z,1004.69
2018-11-05T03:01:38.296Z,1004.69
2018-11-05T03:02:38.259Z,1004.68
2018-11-05T03:03:38.212Z,1004.70
2018-11-05T03:04:38.414Z,1004.74
2018-11-05T03:05:38.121Z,1004.69
2018-11-05T03:06:38.077Z,1004.70
2018-11-05T03:07:38.034Z,1004.71
2018-11-05T03:08:37.994Z,1004.69
2018-11-05T03:09:38.234Z,1004.72
2018-11-05T03:10:37.904Z,1004.69
2018-11-05T03:11:38.157Z,1004.71
2018-11-05T03:12:37.813Z,1004.67
2018-11-05T03:13:37.769Z,1004.69
2018-11-05T03:14:37.726Z,1004.67
2018-11-05T03:15:37.685Z,1004.68
2018-11-05T03:16:37.637Z,1004.72
2018-11-05T03:17:37.594Z,1004.69
2018-11-05T03:18:37.549Z,1004.70
2018-11-05T03:19:37.507Z,1004.72
2018-11-05T03:20:37.467Z,1004.69
2018-11-05T03:21:37.418Z,1004.71
2018-11-05T03:22:37.374Z,1004.66
2018-11-05T03:23:37.330Z,1004.61
2018-11-05T03:24:37.535Z,1004.56
2018-11-05T03:25:37.244Z,1004.58
2018-11-05T03:26:37.200Z,1004.57
2018-11-05T03:27:37.156Z,1004.57
2018-11-05T03:28:37.122Z,1004.58
2018-11-05T03:29:37.067Z,1004.59
2018-11-05T03:30:37.033Z,1004.56
2018-11-05T03:31:37.595Z,1004.55
2018-11-05T03:32:36.947Z,1004.55
2018-11-05T03:33:36.892Z,1004.47
2018-11-05T03:34:36.847Z,1004.51
2018-11-05T03:35:36.901Z,1004.48
2018-11-05T03:36:36.762Z,1004.49
2018-11-05T03:37:36.917Z,1004.46
2018-11-05T03:38:36.924Z,1004.45
2018-11-05T03:39:36.629Z,1004.46
2018-11-05T03:40:36.583Z,1004.45
2018-11-05T03:41:36.540Z,1004.43
2018-11-05T03:42:36.507Z,1004.44
2018-11-05T03:43:36.702Z,1004.48
2018-11-05T03:44:36.407Z,1004.53
2018-11-05T03:45:36.615Z,1004.50
2018-11-05T03:46:36.326Z,1004.50
2018-11-05T03:47:36.282Z,1004.48
2018-11-05T03:48:36.242Z,1004.49
2018-11-05T03:49:36.193Z,1004.46
2018-11-05T03:50:36.145Z,1004.44
2018-11-05T03:51:36.108Z,1004.43
2018-11-05T03:52:36.308Z,1004.39
2018-11-05T03:53:36.013Z,1004.37
2018-11-05T03:54:35.977Z,1004.35
2018-11-05T03:55:35.938Z,1004.38
2018-11-05T03:56:35.975Z,1004.34
2018-11-05T03:57:35.839Z,1004.37
2018-11-05T03:58:35.794Z,1004.40
2018-11-05T03:59:36.153Z,1004.37
2018-11-05T04:00:35.712Z,1004.34
2018-11-05T04:01:35.669Z,1004.32
2018-11-05T04:02:35.684Z,1004.40
2018-11-05T04:03:35.573Z,1004.39
2018-11-05T04:04:35.535Z,1004.42
2018-11-05T04:05:35.584Z,1004.38
2018-11-05T04:06:35.702Z,1004.37
2018-11-05T04:07:35.398Z,1004.36
2018-11-05T04:08:35.354Z,1004.35
2018-11-05T04:09:35.310Z,1004.39
2018-11-05T04:10:35.267Z,1004.39
2018-11-05T04:11:35.226Z,1004.35
2018-11-05T04:12:35.178Z,1004.32
2018-11-05T04:13:35.436Z,1004.36
2018-11-05T04:14:35.091Z,1004.32
2018-11-05T04:15:35.161Z,1004.35
2018-11-05T04:16:35.103Z,1004.31
2018-11-05T04:17:34.959Z,1004.30
2018-11-05T04:18:34.922Z,1004.30
2018-11-05T04:19:34.882Z,1004.33
2018-11-05T04:20:35.084Z,1004.29
2018-11-05T04:21:34.783Z,1004.27
2018-11-05T04:22:35.014Z,1004.26
2018-11-05T04:23:34.696Z,1004.25
2018-11-05T04:24:34.651Z,1004.31
2018-11-05T04:25:34.607Z,1004.28
2018-11-05T04:26:34.571Z,1004.25
2018-11-05T04:27:34.834Z,1004.24
2018-11-05T04:28:34.782Z,1004.26
2018-11-05T04:29:34.434Z,1004.22
2018-11-05T04:30:34.389Z,1004.20
2018-11-05T04:31:34.346Z,1004.19
2018-11-05T04:32:34.305Z,1004.10
2018-11-05T04:33:34.257Z,1004.18
2018-11-05T04:34:34.464Z,1004.15
2018-11-05T04:35:34.172Z,1004.14
2018-11-05T04:36:34.137Z,1004.13
2018-11-05T04:37:34.081Z,1004.11
2018-11-05T04:38:34.043Z,1004.10
2018-11-05T04:39:33.995Z,1004.15
2018-11-05T04:40:33.956Z,1004.10
2018-11-05T04:41:34.165Z,1004.08
2018-11-05T04:42:33.863Z,1004.10
2018-11-05T04:43:33.824Z,1004.09
2018-11-05T04:44:33.876Z,1004.08
2018-11-05T04:45:33.778Z,1004.13
2018-11-05T04:46:33.695Z,1004.11
2018-11-05T04:47:33.643Z,1004.13
2018-11-05T04:48:33.899Z,1004.05
2018-11-05T04:49:33.561Z,1004.05
2018-11-05T04:50:33.813Z,1004.04
2018-11-05T04:51:33.472Z,1004.00
2018-11-05T04:52:33.423Z,1004.01
2018-11-05T04:53:33.379Z,1004.01
2018-11-05T04:54:33.591Z,1003.98
2018-11-05T04:55:33.296Z,1003.98
2018-11-05T04:56:33.347Z,1003.96
2018-11-05T04:57:33.205Z,1003.95
2018-11-05T04:58:33.163Z,1003.97
2018-11-05T04:59:33.119Z,1003.94
2018-11-05T05:00:33.078Z,1003.88
2018-11-05T05:01:33.331Z,1003.94
2018-11-05T05:02:32.989Z,1003.89
2018-11-05T05:03:32.945Z,1003.89
2018-11-05T05:04:32.896Z,1003.89
2018-11-05T05:05:32.853Z,1003.93
2018-11-05T05:06:32.810Z,1003.97
2018-11-05T05:07:32.971Z,1003.88
2018-11-05T05:08:32.722Z,1003.94
2018-11-05T05:09:32.677Z,1003.96
2018-11-05T05:10:32.640Z,1003.95
2018-11-05T05:11:32.591Z,1003.96
2018-11-05T05:12:32.545Z,1003.90
2018-11-05T05:13:32.608Z,1003.95
2018-11-05T05:14:32.709Z,1003.98
2018-11-05T05:15:32.415Z,1003.95
2018-11-05T05:16:32.370Z,1003.97
2018-11-05T05:17:32.331Z,1004.01
2018-11-05T05:18:32.283Z,1003.94
2018-11-05T05:19:32.248Z,1004.00
2018-11-05T05:20:32.247Z,1004.01
2018-11-05T05:21:32.400Z,1003.98
2018-11-05T05:22:32.133Z,1004.00
2018-11-05T05:23:32.066Z,1003.99
2018-11-05T05:24:32.369Z,1003.94
2018-11-05T05:25:31.980Z,1003.97
2018-11-05T05:26:31.936Z,1003.97
2018-11-05T05:27:31.887Z,1003.94
2018-11-05T05:28:32.093Z,1003.94
2018-11-05T05:29:31.804Z,1003.97
2018-11-05T05:30:31.755Z,1003.95
2018-11-05T05:31:31.713Z,1003.95
2018-11-05T05:32:31.670Z,1003.92
2018-11-05T05:33:31.678Z,1003.96
2018-11-05T05:34:31.582Z,1003.94
2018-11-05T05:35:31.789Z,1003.97
2018-11-05T05:36:31.599Z,1003.92
2018-11-05T05:37:31.450Z,1003.88
2018-11-05T05:38:31.417Z,1003.84
2018-11-05T05:39:31.367Z,1003.83
2018-11-05T05:40:31.317Z,1003.84
2018-11-05T05:41:31.286Z,1003.85
2018-11-05T05:42:31.482Z,1003.88
2018-11-05T05:43:31.185Z,1003.88
2018-11-05T05:44:31.141Z,1003.89
2018-11-05T05:45:31.096Z,1003.89
2018-11-05T05:46:31.059Z,1003.86
2018-11-05T05:47:31.011Z,1003.86
2018-11-05T05:48:30.980Z,1003.85
2018-11-05T05:49:31.224Z,1003.86
2018-11-05T05:50:30.888Z,1003.86
2018-11-05T05:51:30.841Z,1003.88
2018-11-05T05:52:30.790Z,1003.89
2018-11-05T05:53:30.748Z,1003.87
2018-11-05T05:54:30.704Z,1003.86
2018-11-05T05:55:30.662Z,1003.83
2018-11-05T05:56:30.864Z,1003.85
2018-11-05T05:57:30.574Z,1003.88
2018-11-05T05:58:30.527Z,1003.91
2018-11-05T05:59:30.485Z,1003.89
2018-11-05T06:00:30.441Z,1003.95
2018-11-05T06:01:30.398Z,1003.91
2018-11-05T06:02:30.551Z,1003.95
2018-11-05T06:03:30.900Z,1003.98
2018-11-05T06:04:30.267Z,1003.97
2018-11-05T06:05:30.219Z,1003.96
2018-11-05T06:06:30.263Z,1003.99
2018-11-05T06:07:30.136Z,1003.98
2018-11-05T06:08:30.240Z,1003.92
2018-11-05T06:09:30.045Z,1003.92
2018-11-05T06:10:30.313Z,1003.91
2018-11-05T06:11:29.970Z,1003.89
2018-11-05T06:12:29.913Z,1003.88
2018-11-05T06:13:29.869Z,1003.89
2018-11-05T06:14:29.825Z,1003.94
2018-11-05T06:15:29.783Z,1003.94
2018-11-05T06:16:29.829Z,1003.93
2018-11-05T06:17:29.997Z,1003.97
2018-11-05T06:18:29.662Z,1004.03
2018-11-05T06:19:29.912Z,1004.01
2018-11-05T06:20:29.602Z,1004.02
2018-11-05T06:21:29.527Z,1004.07
2018-11-05T06:22:29.529Z,1004.09
2018-11-05T06:23:29.441Z,1004.11
2018-11-05T06:24:29.750Z,1004.10
2018-11-05T06:26:29.738Z,1004.03
2018-11-05T06:27:29.285Z,1004.05
2018-11-05T06:28:29.311Z,1004.01
2018-11-05T06:29:29.696Z,1004.01
2018-11-05T06:30:29.183Z,1003.96
2018-11-05T06:31:29.635Z,1004.01
2018-11-05T06:32:29.037Z,1004.10
2018-11-05T06:33:28.994Z,1004.08
2018-11-05T06:34:28.949Z,1004.14
2018-11-05T06:35:29.091Z,1004.08
2018-11-05T06:36:28.863Z,1004.09
2018-11-05T06:37:28.820Z,1004.01
2018-11-05T06:38:29.085Z,1004.05
2018-11-05T06:39:28.832Z,1004.07
2018-11-05T06:40:28.690Z,1004.08
2018-11-05T06:41:28.904Z,1004.12
2018-11-05T06:42:28.601Z,1004.10
2018-11-05T06:43:28.557Z,1004.09
2018-11-05T06:44:28.825Z,1004.05
2018-11-05T06:45:28.870Z,1004.01
2018-11-05T06:46:28.425Z,1004.04
2018-11-05T06:47:28.387Z,1004.04
2018-11-05T06:48:28.642Z,1004.02
2018-11-05T06:49:28.394Z,1004.08
2018-11-05T06:50:28.251Z,1004.05
2018-11-05T06:51:28.273Z,1004.11
2018-11-05T06:52:28.411Z,1004.12
2018-11-05T06:53:28.220Z,1004.08
2018-11-05T06:54:28.175Z,1004.06
2018-11-05T06:55:28.031Z,1004.12
2018-11-05T06:56:28.295Z,1004.08
2018-11-05T06:57:27.980Z,1004.06
2018-11-05T06:58:28.215Z,1004.05
2018-11-05T06:59:28.220Z,1004.08
2018-11-05T07:00:27.812Z,1004.07
2018-11-05T07:01:27.870Z,1004.08
2018-11-05T07:02:27.729Z,1004.06
2018-11-05T07:03:27.782Z,1004.09
2018-11-05T07:04:27.738Z,1004.09
2018-11-05T07:05:27.592Z,1004.01
2018-11-05T07:06:28.102Z,1004.01
2018-11-05T07:07:27.509Z,1003.98
2018-11-05T07:08:27.611Z,1004.00
2018-11-05T07:09:27.621Z,1003.95
2018-11-05T07:10:27.376Z,1003.91
2018-11-05T07:11:27.464Z,1003.94
2018-11-05T07:12:27.292Z,1003.92
2018-11-05T07:13:27.645Z,1003.93
2018-11-05T07:14:27.501Z,1003.94
2018-11-05T07:15:27.157Z,1003.88
2018-11-05T07:16:27.219Z,1003.90
2018-11-05T07:17:27.068Z,1003.88
2018-11-05T07:18:27.145Z,1003.89
2018-11-05T07:19:27.644Z,1003.86
2018-11-05T07:20:26.937Z,1003.86
2018-11-05T07:21:26.993Z,1003.84
2018-11-05T07:22:26.850Z,1003.83
2018-11-05T07:23:26.907Z,1003.88
2018-11-05T07:24:26.763Z,1003.88
2018-11-05T07:25:26.723Z,1003.90
2018-11-05T07:26:27.090Z,1003.91
2018-11-05T07:27:27.038Z,1003.90
2018-11-05T07:28:26.639Z,1003.93
2018-11-05T07:29:26.651Z,1003.96
2018-11-05T07:30:26.557Z,1003.96
2018-11-05T07:31:26.711Z,1004.02
2018-11-05T07:32:26.413Z,1004.08
2018-11-05T07:33:26.772Z,1004.07
2018-11-05T07:34:26.495Z,1004.18
2018-11-05T07:35:26.493Z,1004.18
2018-11-05T07:36:26.590Z,1004.14
2018-11-05T07:37:26.200Z,1004.22
2018-11-05T07:38:26.202Z,1004.28
2018-11-05T07:39:26.409Z,1004.32
2018-11-05T07:40:26.070Z,1004.29
2018-11-05T07:41:26.271Z,1004.20
2018-11-05T07:42:25.988Z,1004.22
2018-11-05T07:43:26.038Z,1004.24
2018-11-05T07:44:26.192Z,1004.26
2018-11-05T07:45:25.847Z,1004.26
2018-11-05T07:46:26.209Z,1004.24
2018-11-05T07:47:25.762Z,1004.30
2018-11-05T07:48:25.719Z,1004.27
2018-11-05T07:49:25.921Z,1004.31
2018-11-05T07:50:25.644Z,1004.23
2018-11-05T07:51:25.605Z,1004.23
2018-11-05T07:52:25.571Z,1004.28
2018-11-05T07:53:25.949Z,1004.32
2018-11-05T07:54:25.754Z,1004.33
2018-11-05T07:55:25.409Z,1004.34
2018-11-05T07:56:25.467Z,1004.35
2018-11-05T07:57:25.323Z,1004.33
2018-11-05T07:58:25.381Z,1004.33
2018-11-05T07:59:25.488Z,1004.33
2018-11-05T08:00:25.515Z,1004.33
2018-11-05T08:01:25.482Z,1004.33
2018-11-05T08:02:25.106Z,1004.33
2018-11-05T08:03:25.064Z,1004.27
2018-11-05T08:04:25.119Z,1004.25
2018-11-05T08:05:24.976Z,1004.20
2018-11-05T08:06:25.084Z,1004.20
2018-11-05T08:07:25.187Z,1004.21
2018-11-05T08:08:25.082Z,1004.17
2018-11-05T08:09:24.900Z,1004.12
2018-11-05T08:10:24.757Z,1004.11
2018-11-05T08:11:24.816Z,1004.13
2018-11-05T08:13:24.729Z,1004.16
2018-11-05T08:14:25.455Z,1004.12
2018-11-05T08:15:24.543Z,1004.08
2018-11-05T08:16:24.598Z,1004.02
2018-11-05T08:17:24.471Z,1004.06
2018-11-05T08:18:24.713Z,1004.03
2018-11-05T08:19:24.366Z,1004.06
2018-11-05T08:20:24.325Z,1003.99
2018-11-05T08:21:24.682Z,1003.99
2018-11-05T08:22:24.539Z,1004.03
2018-11-05T08:23:24.299Z,1004.05
2018-11-05T08:24:24.247Z,1004.08
2018-11-05T08:25:24.104Z,1004.06
2018-11-05T08:26:24.166Z,1004.12
2018-11-05T08:27:24.117Z,1004.21
2018-11-05T08:29:24.083Z,1004.16
2018-11-05T08:30:23.889Z,1004.15
2018-11-05T08:31:23.947Z,1004.16
2018-11-05T08:32:23.949Z,1004.15
2018-11-05T08:33:23.857Z,1004.08
2018-11-05T08:34:23.947Z,1004.05
2018-11-05T08:35:23.743Z,1004.03
2018-11-05T08:36:23.727Z,1004.06
2018-11-05T08:37:23.759Z,1003.98
2018-11-05T08:38:23.705Z,1003.97
2018-11-05T08:39:23.500Z,1003.99
2018-11-05T08:40:23.631Z,1003.97
2018-11-05T08:41:23.518Z,1003.96
2018-11-05T08:42:23.467Z,1003.95
2018-11-05T08:44:23.631Z,1003.86
2018-11-05T08:45:23.239Z,1003.90
2018-11-05T08:46:23.494Z,1003.89
2018-11-05T08:47:23.553Z,1003.92
2018-11-05T08:48:23.109Z,1003.93
2018-11-05T08:49:23.265Z,1003.92
2018-11-05T08:50:23.248Z,1003.94
2018-11-05T08:52:23.339Z,1003.90
2018-11-05T08:53:23.106Z,1003.89
2018-11-05T08:54:23.744Z,1003.85
2018-11-05T08:55:22.806Z,1003.86
2018-11-05T08:56:22.817Z,1003.81
2018-11-05T08:57:22.932Z,1003.80
2018-11-05T08:58:22.878Z,1003.75
2018-11-05T08:59:22.734Z,1003.73
2018-11-05T09:00:22.590Z,1003.76
2018-11-05T09:01:22.852Z,1003.71
2018-11-05T09:02:22.613Z,1003.75
2018-11-05T09:03:22.464Z,1003.70
2018-11-05T09:04:22.521Z,1003.71
2018-11-05T09:05:22.461Z,1003.74
2018-11-05T09:06:22.588Z,1003.79
2018-11-05T09:07:22.291Z,1003.80
2018-11-05T09:08:22.303Z,1003.72
2018-11-05T09:09:22.208Z,1003.77
2018-11-05T09:10:22.633Z,1003.76
2018-11-05T09:11:22.639Z,1003.72
2018-11-05T09:12:22.077Z,1003.73
2018-11-05T09:13:22.034Z,1003.72
2018-11-05T09:14:22.392Z,1003.71
2018-11-05T09:15:22.008Z,1003.72
2018-11-05T09:16:22.201Z,1003.69
2018-11-05T09:17:22.062Z,1003.60
2018-11-05T09:18:21.822Z,1003.66
2018-11-05T09:19:21.895Z,1003.66
2018-11-05T09:20:21.837Z,1003.64
2018-11-05T09:21:22.091Z,1003.61
2018-11-05T09:22:21.846Z,1003.61
2018-11-05T09:23:21.605Z,1003.65
2018-11-05T09:24:21.662Z,1003.56
2018-11-05T09:25:21.517Z,1003.54
2018-11-05T09:26:21.576Z,1003.56
2018-11-05T09:27:21.430Z,1003.55
2018-11-05T09:28:21.637Z,1003.60
2018-11-05T09:29:21.358Z,1003.57
2018-11-05T09:33:47.261Z,1003.65
2018-11-05T09:39:54.422Z,1003.53
2018-11-05T10:59:46.311Z,1003.05
2018-11-05T11:00:46.064Z,1003.00
2018-11-05T11:01:45.696Z,1003.03
2018-11-05T11:02:45.629Z,1002.98
2018-11-05T11:03:45.594Z,1003.06
2018-11-05T11:04:45.750Z,1003.12
2018-11-05T11:05:45.502Z,1003.10
2018-11-05T11:06:46.149Z,1003.06
2018-11-05T11:07:45.427Z,1003.07
2018-11-05T11:08:45.485Z,1003.09
2018-11-05T11:09:45.467Z,1003.18
2018-11-05T11:10:45.291Z,1003.07
2018-11-05T11:11:45.343Z,1003.11
2018-11-05T11:12:45.200Z,1003.11
2018-11-05T11:13:45.463Z,1003.05
2018-11-05T11:14:45.215Z,1003.03
2018-11-05T11:16:45.032Z,1003.00
2018-11-05T11:17:44.988Z,1002.96
2018-11-05T11:18:45.055Z,1002.95
2018-11-05T11:19:45.199Z,1003.01
2018-11-05T11:20:44.964Z,1002.99
2018-11-05T11:21:44.915Z,1003.03
2018-11-05T11:22:44.772Z,1002.99
